TimeEDT,TemperatureF,Dew PointF,Humidity,Sea Level PressureIn,VisibilityMPH,Wind Direction,Wind SpeedMPH,Gust SpeedMPH,PrecipitationIn,Events,Conditions,WindDirDegrees,DateUTC
12:54 AM,50.0,45.0,83,30.18,10.0,North,12.7,-,0.00,,Overcast,360,2013-05-24 04:54:00
1:54 AM,48.9,42.1,77,30.19,10.0,NNE,13.8,-,N/A,,Overcast,20,2013-05-24 05:54:00
2:54 AM,48.9,42.1,77,30.20,10.0,NNE,10.4,-,N/A,,Mostly Cloudy,20,2013-05-24 06:54:00
3:54 AM,46.0,41.0,83,30.23,10.0,NNW,5.8,-,N/A,,Mostly Cloudy,340,2013-05-24 07:54:00
4:54 AM,45.0,42.1,90,30.25,10.0,NNW,3.5,-,N/A,,Scattered Clouds,330,2013-05-24 08:54:00
5:54 AM,44.1,39.0,82,30.25,10.0,North,9.2,-,N/A,,Scattered Clouds,350,2013-05-24 09:54:00
6:54 AM,43.0,37.9,82,30.28,10.0,NNW,8.1,-,N/A,,Partly Cloudy,340,2013-05-24 10:54:00
7:54 AM,45.0,37.9,76,30.31,10.0,NNW,10.4,-,N/A,,Partly Cloudy,340,2013-05-24 11:54:00
8:54 AM,46.9,37.9,71,30.34,10.0,North,9.2,-,N/A,,Partly Cloudy,360,2013-05-24 12:54:00
9:54 AM,50.0,39.9,68,30.35,10.0,NNW,9.2,-,N/A,,Scattered Clouds,330,2013-05-24 13:54:00
10:54 AM,53.1,39.0,59,30.36,10.0,NW,10.4,-,N/A,,Scattered Clouds,310,2013-05-24 14:54:00
11:54 AM,55.0,39.0,55,30.36,10.0,NW,13.8,24.2,N/A,,Partly Cloudy,320,2013-05-24 15:54:00
12:54 PM,57.0,37.9,49,30.36,10.0,North,11.5,18.4,N/A,,Partly Cloudy,350,2013-05-24 16:54:00
1:54 PM,57.9,37.0,46,30.35,10.0,NNW,6.9,-,N/A,,Clear,340,2013-05-24 17:54:00
2:54 PM,62.1,39.0,43,30.35,10.0,NNW,13.8,17.3,N/A,,Clear,340,2013-05-24 18:54:00
3:54 PM,63.0,36.0,37,30.34,10.0,NNW,13.8,17.3,N/A,,Clear,340,2013-05-24 19:54:00
4:54 PM,64.0,37.0,37,30.32,10.0,North,9.2,18.4,N/A,,Clear,360,2013-05-24 20:54:00
5:54 PM,64.0,36.0,35,30.32,10.0,NNW,10.4,-,N/A,,Clear,330,2013-05-24 21:54:00
6:54 PM,64.0,34.0,33,30.30,10.0,NNW,8.1,-,N/A,,Clear,340,2013-05-24 22:54:00
7:54 PM,62.1,36.0,38,30.29,10.0,NNW,5.8,-,N/A,,Partly Cloudy,330,2013-05-24 23:54:00
8:54 PM,57.9,36.0,44,30.29,10.0,NW,3.5,-,N/A,,Clear,310,2013-05-25 00:54:00
9:54 PM,53.1,37.9,57,30.31,10.0,Calm,Calm,-,N/A,,Scattered Clouds,0,2013-05-25 01:54:00
10:54 PM,48.9,39.9,71,30.33,10.0,NW,3.5,-,N/A,,Clear,320,2013-05-25 02:54:00
11:54 PM,46.9,41.0,80,30.35,10.0,NNW,5.8,-,N/A,,Clear,330,2013-05-25 03:54:00